DW3216 Weather Reports


Display with metric or nautical units.
time (UTC)temp
F
wind
direction
speed
MPH
gust
MPH
rain 1hr
in
rain 24hr
in
rain mn
in
humidity
%
barometer
mb
20180925203105 74 1 0.0 9.0 0.03 0.99 0.99 96 1021.7
20180925202605 74 36 0.0 3.0 0.02 0.98 0.98 96 1021.6
20180925202105 74 21 1.0 5.0 0.01 0.97 0.97 96 1021.6
20180925201605 74 319 2.0 7.0 0.01 0.97 0.97 96 1021.6
20180925201105 74 34 2.0 10.0 0.00 0.96 0.96 96 1021.6
20180925200605 74 20 1.0 10.0 0.00 0.96 0.96 96 1021.7
20180925200106 74 349 2.0 5.0 0.00 0.96 0.96 96 1021.8
20180925195604 74 10 3.0 12.0 0.00 0.96 0.96 96 1022.0
20180925195104 74 346 3.0 9.0 0.00 0.96 0.96 96 1022.0
20180925194604 74 140 2.0 7.0 0.00 0.96 0.96 96 1022.1
20180925194105 74 32 1.0 3.0 0.00 0.96 0.96 96 1022.1
20180925193604 74 18 1.0 6.0 0.01 0.96 0.96 96 1022.0
20180925193105 74 8 2.0 7.0 0.01 0.96 0.96 96 1022.0
20180925192605 74 53 2.0 8.0 0.01 0.96 0.96 96 1022.2
20180925192105 74 6 2.0 7.0 0.01 0.96 0.96 96 1022.3
20180925191605 74 359 2.0 7.0 0.01 0.96 0.96 96 1022.3
20180925191104 74 40 0.0 5.0 0.02 0.96 0.96 97 1022.4
20180925190605 74 47 1.0 3.0 0.03 0.96 0.96 96 1022.4
20180925190107 73 89 2.0 7.0 0.04 0.96 0.96 96 1022.5
20180925185604 73 52 2.0 9.0 0.06 0.96 0.96 97 1022.4
20180925185104 73 20 3.0 10.0 0.19 0.96 0.96 97 1022.4
20180925184604 73 21 2.0 5.0 0.22 0.96 0.96 97 1022.4
20180925184105 73 68 1.0 7.0 0.26 0.96 0.96 96 1022.4
20180925183606 73 239 1.0 3.0 0.29 0.95 0.95 96 1022.4
20180925183104 72 23 1.0 7.0 0.31 0.95 0.95 96 1022.4
20180925182605 72 278 1.0 5.0 0.32 0.95 0.95 96 1022.5
20180925182104 72 21 1.0 3.0 0.36 0.95 0.95 96 1022.5
20180925181719 72 75 1.0 5.0 0.40 0.95 0.95 96 1022.6
20180925181104 72 51 0.0 3.0 0.40 0.94 0.94 96 1022.8
20180925180605 72 58 1.0 7.0 0.44 0.93 0.93 96 1022.9
20180925180106 72 16 2.0 9.0 0.46 0.92 0.92 96 1023.0
20180925175605 72 14 3.0 5.0 0.46 0.90 0.90 96 1023.3
20180925175105 71 107 1.0 3.0 0.34 0.77 0.77 96 1023.4
20180925174605 71 76 2.0 7.0 0.32 0.74 0.74 96 1023.2
20180925174105 71 353 2.0 5.0 0.28 0.70 0.70 96 1023.4
20180925173605 71 10 2.0 7.0 0.24 0.66 0.66 96 1023.7
20180925173104 71 346 0.0 5.0 0.22 0.64 0.64 96 1023.6
20180925172605 71 112 2.0 5.0 0.21 0.63 0.63 96 1023.7
20180925172104 71 114 1.0 9.0 0.17 0.59 0.59 96 1023.7
20180925171604 71 77 5.0 12.0 0.13 0.55 0.55 96 1023.3
20180925171105 71 27 2.0 7.0 0.12 0.54 0.54 96 1023.7
20180925170605 71 291 3.0 7.0 0.07 0.49 0.49 96 1023.9
20180925170105 71 74 2.0 9.0 0.04 0.46 0.46 96 1024.1
20180925165606 71 48 1.0 3.0 0.02 0.44 0.44 96 1024.1
20180925165105 71 25 1.0 5.0 0.01 0.43 0.43 96 1024.1
20180925164604 71 8 1.0 6.0 0.00 0.42 0.42 96 1024.1
20180925164104 71 18 0.0 5.0 0.00 0.42 0.42 96 1024.3
20180925163604 71 357 1.0 7.0 0.00 0.42 0.42 96 1024.3
20180925163105 71 13 2.0 8.0 0.00 0.42 0.42 96 1024.1
20180925162605 70 340 5.0 9.0 0.00 0.42 0.42 96 1024.1
20180925162108 70 31 3.0 10.0 0.00 0.42 0.42 96 1024.2
20180925161605 70 40 3.0 8.0 0.00 0.42 0.42 96 1024.3
20180925161105 70 61 2.0 12.0 0.00 0.42 0.42 96 1024.3
20180925160604 70 61 1.0 8.0 0.00 0.42 0.42 96 1024.3
20180925160106 69 114 4.0 13.0 0.00 0.42 0.42 96 1024.4
20180925155605 69 26 3.0 10.0 0.00 0.42 0.42 96 1024.4
20180925155105 69 22 3.0 10.0 0.00 0.42 0.42 96 1024.3
20180925154606 69 50 3.0 8.0 0.00 0.42 0.42 96 1024.4
20180925154105 69 25 3.0 9.0 0.00 0.42 0.42 96 1024.6
20180925153605 69 1 1.0 7.0 0.00 0.42 0.42 96 1024.7
20180925153104 69 349 2.0 8.0 0.00 0.42 0.42 96 1025.0
20180925152605 68 300 3.0 10.0 0.00 0.42 0.42 96 1025.2
20180925152105 68 54 2.0 8.0 0.00 0.42 0.42 96 1025.2
20180925151605 68 29 3.0 8.0 0.00 0.42 0.42 96 1025.3
20180925151105 68 97 2.0 7.0 0.00 0.42 0.42 96 1025.4
20180925150605 68 56 3.0 9.0 0.00 0.42 0.42 96 1025.5
20180925150106 68 254 4.0 13.0 0.00 0.42 0.42 96 1025.5
20180925145605 68 15 1.0 5.0 0.00 0.42 0.42 96 1025.7
20180925145105 68 48 1.0 7.0 0.00 0.42 0.42 96 1025.9
20180925144605 67 27 2.0 7.0 0.00 0.42 0.42 96 1025.9
20180925144105 67 56 2.0 12.0 0.00 0.42 0.42 96 1025.9
20180925143605 67 46 3.0 8.0 0.00 0.42 0.42 96 1025.8
20180925143106 67 26 2.0 7.0 0.00 0.42 0.42 96 1026.1
20180925142604 67 53 1.0 8.0 0.00 0.42 0.42 96 1026.3
20180925142104 66 42 2.0 5.0 0.01 0.42 0.42 96 1026.3
20180925141607 65 75 1.0 7.0 0.01 0.42 0.42 96 1026.5
20180925141105 64 114 0.0 2.0 0.02 0.42 0.42 96 1026.6
20180925140605 64 276 0.0 2.0 0.04 0.42 0.42 96 1026.7
20180925140107 64 244 1.0 2.0 0.04 0.42 0.42 96 1026.7
20180925135604 64 291 0.0 2.0 0.04 0.42 0.42 96 1026.8
20180925135104 63 310 0.0 2.0 0.05 0.42 0.42 96 1026.9
20180925134605 63 325 1.0 5.0 0.06 0.42 0.42 96 1027.0
20180925134104 63 114 0.0 1.0 0.07 0.42 0.42 95 1026.8
20180925133605 63 209 0.0 1.0 0.10 0.42 0.42 95 1026.9
20180925133106 62 282 0.0 2.0 0.12 0.42 0.42 95 1026.9
20180925132604 62 290 1.0 3.0 0.14 0.42 0.42 95 1027.0
20180925132105 62 261 0.0 2.0 0.14 0.41 0.41 95 1027.1
20180925131604 62 329 1.0 6.0 0.15 0.41 0.41 95 1027.1
20180925131105 62 352 0.0 2.0 0.15 0.40 0.40 95 1027.2
20180925130604 62 295 1.0 6.0 0.14 0.38 0.38 95 1027.2
20180925130107 62 318 2.0 6.0 0.14 0.38 0.38 95 1027.2
20180925125605 62 275 0.0 2.0 0.15 0.38 0.38 95 1027.2
20180925125104 62 264 0.0 1.0 0.15 0.37 0.37 95 1027.3
20180925124604 62 268 0.0 3.0 0.14 0.36 0.36 95 1027.4
20180925124105 62 316 0.0 1.0 0.13 0.35 0.35 95 1027.4
20180925123604 62 303 1.0 3.0 0.10 0.32 0.32 95 1027.6
20180925123105 61 269 0.0 3.0 0.09 0.30 0.30 95 1027.6
20180925122605 61 287 1.0 5.0 0.07 0.28 0.28 94 1027.6
20180925122104 61 298 2.0 6.0 0.07 0.27 0.27 94 1027.8
20180925121604 61 292 2.0 7.0 0.06 0.26 0.26 94 1027.9
20180925121104 61 290 1.0 3.0 0.07 0.25 0.25 94 1027.9
20180925120604 61 274 2.0 5.0 0.08 0.24 0.24 94 1028.0
20180925120107 61 272 1.0 5.0 0.09 0.24 0.24 94 1028.1
20180925115604 61 187 0.0 3.0 0.09 0.23 0.23 94 1028.2
20180925115105 61 283 1.0 5.0 0.09 0.22 0.22 94 1028.1
20180925114605 61 283 2.0 8.0 0.10 0.22 0.22 94 1028.0
20180925114105 61 293 1.0 6.0 0.11 0.22 0.22 93 1027.9
20180925113604 61 292 1.0 6.0 0.12 0.22 0.22 93 1027.9
20180925113105 61 45 2.0 6.0 0.12 0.21 0.21 93 1028.0
20180925112605 61 33 1.0 8.0 0.13 0.21 0.21 93 1028.1
20180925112104 61 349 1.0 8.0 0.12 0.20 0.20 93 1028.1
20180925111105 61 272 1.0 12.0 0.12 0.18 0.18 93 1028.2
20180925110605 61 290 1.0 5.0 0.10 0.16 0.16 93 1028.3
20180925110106 61 285 3.0 8.0 0.09 0.15 0.15 93 1028.3
20180925105605 61 18 2.0 5.0 0.08 0.14 0.14 93 1028.3
20180925105105 61 300 2.0 7.0 0.07 0.13 0.13 92 1028.3
20180925104605 61 271 1.0 7.0 0.06 0.12 0.12 92 1028.3
20180925104104 61 344 1.0 5.0 0.05 0.11 0.11 92 1028.3
20180925103605 60 185 3.0 5.0 0.04 0.10 0.10 92 1028.3
20180925103104 60 9 2.0 6.0 0.04 0.09 0.09 92 1028.3
20180925102604 60 288 2.0 9.0 0.03 0.08 0.08 92 1028.4
20180925102105 60 285 2.0 8.0 0.04 0.08 0.08 91 1028.5
20180925101605 60 245 1.0 6.0 0.04 0.07 0.07 91 1028.5
20180925101107 60 339 1.0 5.0 0.04 0.06 0.06 91 1028.7
20180925100604 60 304 1.0 5.0 0.04 0.06 0.06 91 1028.7
20180925100106 61 53 2.0 7.0 0.04 0.06 0.06 90 1028.8
20180925095605 61 309 1.0 13.0 0.05 0.06 0.06 90 1028.8
20180925095104 61 100 1.0 5.0 0.05 0.06 0.06 90 1028.8
20180925094605 61 43 1.0 3.0 0.05 0.06 0.06 90 1028.9
20180925094105 61 322 1.0 6.0 0.05 0.06 0.06 90 1028.9
20180925093605 61 224 0.0 6.0 0.05 0.06 0.06 90 1028.9
20180925093105 61 325 3.0 10.0 0.05 0.05 0.05 89 1028.9
20180925092605 61 353 3.0 8.0 0.05 0.05 0.05 89 1028.9
20180925092105 61 282 2.0 9.0 0.04 0.04 0.04 89 1028.8
20180925091606 61 292 4.0 12.0 0.03 0.03 0.03 88 1028.8
20180925091105 61 47 3.0 12.0 0.02 0.02 0.02 88 1029.0
20180925090605 61 352 4.0 9.0 0.02 0.02 0.02 88 1029.3
20180925090107 61 322 3.0 8.0 0.02 0.02 0.02 88 1029.3
20180925085605 61 354 3.0 10.0 0.01 0.01 0.01 88 1029.3
20180925085104 61 318 4.0 8.0 0.01 0.01 0.01 87 1029.4
20180925084605 61 254 3.0 12.0 0.01 0.01 0.01 87 1029.4
20180925084105 61 295 5.0 9.0 0.01 0.01 0.01 87 1029.4
20180925083605 61 283 4.0 8.0 0.01 0.01 0.01 87 1029.5
20180925083105 61 65 1.0 5.0 0.00 0.00 0.00 86 1029.6
20180925082605 61 76 1.0 5.0 0.00 0.00 0.00 86 1029.6
20180925082105 61 307 1.0 7.0 0.00 0.00 0.00 86 1029.7
20180925081610 61 320 2.0 8.0 0.00 0.00 0.00 86 1029.7
20180925081104 61 47 1.0 8.0 0.00 0.00 0.00 85 1029.7
20180925080605 61 73 1.0 5.0 0.00 0.00 0.00 85 1029.8
20180925080105 61 279 1.0 5.0 0.00 0.00 0.00 84 1029.8
20180925075605 61 273 2.0 8.0 0.00 0.00 0.00 84 1029.8
20180925075104 61 23 4.0 7.0 0.00 0.00 0.00 84 1030.0
20180925074604 61 57 3.0 9.0 0.00 0.00 0.00 83 1030.0
20180925074104 61 57 4.0 7.0 0.00 0.00 0.00 83 1030.0
20180925073605 61 49 2.0 6.0 0.00 0.00 0.00 83 1030.2
20180925073105 61 354 3.0 7.0 0.00 0.00 0.00 83 1030.4
20180925072605 61 7 2.0 9.0 0.00 0.00 0.00 83 1030.4
20180925072105 61 15 3.0 9.0 0.00 0.00 0.00 83 1030.4
20180925071605 61 342 3.0 7.0 0.00 0.00 0.00 83 1030.5
20180925071104 61 40 1.0 6.0 0.00 0.00 0.00 83 1030.5
20180925070604 61 30 2.0 6.0 0.00 0.00 0.00 83 1030.7
20180925070106 61 348 1.0 5.0 0.00 0.00 0.00 83 1030.8
20180925065605 61 1 1.0 6.0 0.00 0.00 0.00 83 1030.9
20180925065105 61 273 3.0 6.0 0.00 0.00 0.00 83 1030.9
20180925064605 61 346 2.0 6.0 0.00 0.00 0.00 83 1030.9
20180925064104 61 343 2.0 7.0 0.00 0.00 0.00 82 1030.9
20180925063605 61 58 2.0 8.0 0.00 0.00 0.00 82 1031.1
20180925063105 61 321 1.0 12.0 0.00 0.00 0.00 82 1031.2
20180925062605 61 297 5.0 12.0 0.00 0.00 0.00 82 1031.2
20180925062104 61 56 2.0 6.0 0.00 0.00 0.00 82 1031.1
20180925061605 61 33 3.0 8.0 0.00 0.00 0.00 82 1031.3
20180925061104 61 28 3.0 13.0 0.00 0.00 0.00 82 1031.3
20180925060605 61 11 3.0 10.0 0.00 0.00 0.00 82 1031.4
20180925060105 61 338 2.0 6.0 0.00 0.00 0.00 82 1031.5
20180925055605 61 55 3.0 8.0 0.00 0.00 0.00 82 1031.6
20180925055105 61 316 3.0 8.0 0.00 0.00 0.00 81 1031.7
20180925054605 61 287 3.0 7.0 0.00 0.00 0.00 81 1031.8
20180925054105 61 37 3.0 8.0 0.00 0.00 0.00 80 1031.8
20180925053605 61 285 2.0 10.0 0.00 0.00 0.00 80 1031.8
20180925053105 61 324 2.0 10.0 0.00 0.00 0.00 80 1031.8
20180925052606 61 340 5.0 10.0 0.00 0.00 0.00 79 1031.9
20180925052104 61 271 2.0 6.0 0.00 0.00 0.00 79 1032.0
20180925051604 61 283 5.0 20.0 0.00 0.00 0.00 79 1032.1
20180925051104 61 311 3.0 9.0 0.00 0.00 0.00 79 1032.2
20180925050605 61 288 3.0 7.0 0.00 0.00 0.00 79 1032.2
20180925050106 61 299 4.0 8.0 0.00 0.00 0.00 78 1032.1
20180925045604 62 342 2.0 12.0 0.00 0.00 0.00 79 1032.3
20180925045104 61 347 2.0 8.0 0.00 0.00 0.00 79 1032.2
20180925044605 61 301 4.0 12.0 0.00 0.00 0.00 78 1032.3
20180925044105 61 288 3.0 12.0 0.00 0.00 0.00 79 1032.3
20180925043606 61 355 2.0 7.0 0.00 0.00 0.00 79 1032.3
20180925043105 62 341 4.0 13.0 0.00 0.00 0.00 79 1032.3
20180925042605 62 296 3.0 8.0 0.00 0.00 0.00 79 1032.4
20180925042104 62 337 3.0 8.0 0.00 0.00 0.00 79 1032.6
20180925041605 62 326 2.0 7.0 0.00 0.00 0.00 79 1032.6
20180925041105 62 340 1.0 7.0 0.00 0.00 0.00 79 1032.7
20180925040605 62 323 3.0 12.0 0.00 0.00 0.00 79 1032.7
20180925040106 62 354 3.0 8.0 0.00 0.00 0.00 79 1032.8
20180925035605 62 297 2.0 8.0 0.00 0.00 0.00 79 1032.8
20180925035105 62 239 4.0 9.0 0.00 0.00 0.00 79 1032.9
20180925034605 62 311 3.0 9.0 0.00 0.00 0.00 79 1032.9
20180925034104 62 270 3.0 7.0 0.00 0.00 0.00 79 1033.0
20180925033605 62 23 1.0 6.0 0.00 0.00 0.00 79 1033.0
20180925033106 62 310 3.0 8.0 0.00 0.00 0.00 79 1033.1
20180925032605 62 17 3.0 8.0 0.00 0.00 0.00 79 1033.1
20180925032105 62 322 3.0 8.0 0.00 0.00 0.00 79 1033.0
20180925031605 62 42 3.0 8.0 0.00 0.00 0.00 79 1033.1
20180925031104 62 311 2.0 7.0 0.00 0.00 0.00 79 1033.0
20180925030605 62 56 3.0 6.0 0.00 0.00 0.00 79 1033.0
20180925030106 62 280 5.0 12.0 0.00 0.00 0.00 79 1032.9
20180925025604 62 284 2.0 8.0 0.00 0.00 0.00 79 1033.0
20180925025104 62 300 3.0 8.0 0.00 0.00 0.00 79 1032.9
20180925024605 62 64 2.0 6.0 0.00 0.00 0.00 79 1033.0
20180925024105 62 353 2.0 8.0 0.00 0.00 0.00 79 1033.0
20180925023606 62 280 2.0 7.0 0.00 0.00 0.00 79 1032.9
20180925023105 62 347 3.0 7.0 0.00 0.00 0.00 79 1032.9
20180925022604 62 339 3.0 7.0 0.00 0.00 0.00 79 1032.9
20180925022105 62 302 2.0 6.0 0.00 0.00 0.00 79 1032.8
20180925021605 62 59 1.0 5.0 0.00 0.00 0.00 79 1032.8
20180925021104 62 302 1.0 6.0 0.00 0.00 0.00 79 1032.9
20180925020605 62 323 3.0 12.0 0.00 0.00 0.00 79 1032.7
20180925020106 62 294 2.0 7.0 0.00 0.00 0.00 79 1032.7
20180925015604 62 25 2.0 8.0 0.00 0.00 0.00 79 1032.9
20180925015104 62 320 2.0 5.0 0.00 0.00 0.00 79 1033.0
20180925014605 62 289 2.0 8.0 0.00 0.00 0.00 79 1032.8
20180925014106 62 4 3.0 9.0 0.00 0.00 0.00 79 1032.9
20180925013606 62 0 3.0 8.0 0.00 0.00 0.00 79 1033.0
20180925013105 62 20 1.0 5.0 0.00 0.00 0.00 79 1033.0
20180925012606 62 12 3.0 8.0 0.00 0.00 0.00 79 1032.9
20180925012105 62 49 3.0 7.0 0.00 0.00 0.00 79 1033.0
20180925011606 62 313 2.0 7.0 0.00 0.00 0.00 79 1032.8
20180925011106 62 62 2.0 8.0 0.00 0.00 0.00 79 1032.7
20180925010605 62 125 1.0 5.0 0.00 0.00 0.00 79 1032.5
20180925010106 62 335 3.0 9.0 0.00 0.00 0.00 79 1032.5
20180925005605 62 350 2.0 6.0 0.00 0.00 0.00 79 1032.5
20180925005105 62 43 2.0 12.0 0.00 0.00 0.00 78 1032.4
20180925004604 62 2 2.0 12.0 0.00 0.00 0.00 78 1032.4
20180925004105 62 20 2.0 7.0 0.00 0.00 0.00 78 1032.4
20180925003604 62 44 2.0 6.0 0.00 0.00 0.00 78 1032.4
20180925003105 62 44 3.0 8.0 0.00 0.00 0.00 78 1032.3
20180925002605 62 315 3.0 8.0 0.00 0.00 0.00 78 1032.4
20180925002105 62 42 2.0 10.0 0.00 0.00 0.00 78 1032.3
20180925001604 63 41 3.0 9.0 0.00 0.00 0.00 78 1032.3
20180925001104 63 43 3.0 12.0 0.00 0.00 0.00 77 1032.4
20180925000606 63 292 2.0 8.0 0.00 0.00 0.00 77 1032.5
20180925000106 63 314 3.0 9.0 0.00 0.00 0.00 77 1032.5
20180924235604 63 105 2.0 5.0 0.00 0.00 0.00 76 1032.5
20180924235104 63 31 3.0 9.0 0.00 0.00 0.00 76 1032.5
20180924234605 63 10 2.0 5.0 0.00 0.00 0.00 76 1032.4
20180924234105 63 3 2.0 5.0 0.00 0.00 0.00 75 1032.3
20180924233604 63 13 2.0 7.0 0.00 0.00 0.00 75 1032.2
20180924233104 63 273 5.0 9.0 0.00 0.00 0.00 74 1032.1
20180924232604 64 352 2.0 7.0 0.00 0.00 0.00 74 1032.1
20180924232105 64 4 2.0 6.0 0.00 0.00 0.00 74 1032.2
20180924231605 64 318 3.0 5.0 0.00 0.00 0.00 74 1032.2
20180924231104 64 14 2.0 7.0 0.00 0.00 0.00 74 1032.1
20180924230605 64 37 3.0 7.0 0.00 0.00 0.00 74 1032.1
20180924230106 64 68 3.0 9.0 0.00 0.00 0.00 74 1032.0
20180924225605 64 44 3.0 7.0 0.00 0.00 0.00 74 1032.1
20180924225104 64 343 2.0 6.0 0.00 0.00 0.00 74 1031.9
20180924224605 64 53 2.0 9.0 0.00 0.00 0.00 74 1032.0
20180924224105 64 40 4.0 7.0 0.00 0.00 0.00 74 1032.0
20180924223605 65 50 3.0 7.0 0.00 0.00 0.00 74 1031.9
20180924223105 65 3 3.0 6.0 0.00 0.00 0.00 73 1032.0
20180924222605 65 3 3.0 8.0 0.00 0.00 0.00 73 1031.9
20180924222105 65 55 3.0 8.0 0.00 0.00 0.00 73 1031.9
20180924221605 65 9 3.0 9.0 0.00 0.00 0.00 73 1031.9
20180924221105 66 272 2.0 7.0 0.00 0.00 0.00 73 1031.7
20180924220605 66 282 2.0 8.0 0.00 0.00 0.00 73 1031.6
20180924220106 66 336 2.0 6.0 0.00 0.00 0.00 73 1031.5
20180924215605 66 314 3.0 8.0 0.00 0.00 0.00 72 1031.5
20180924215105 66 285 2.0 6.0 0.00 0.00 0.00 71 1031.6
20180924214605 67 110 4.0 8.0 0.00 0.00 0.00 71 1031.6
20180924214105 67 40 2.0 6.0 0.00 0.00 0.00 72 1031.6
20180924213605 67 354 2.0 3.0 0.00 0.00 0.00 72 1031.6
20180924213105 67 347 2.0 3.0 0.00 0.00 0.00 72 1031.5
20180924212605 67 346 2.0 6.0 0.00 0.00 0.00 72 1031.4
20180924212105 67 0 3.0 5.0 0.00 0.00 0.00 71 1031.4
20180924211604 67 255 3.0 7.0 0.00 0.00 0.00 69 1031.5
20180924211105 67 359 2.0 7.0 0.00 0.00 0.00 69 1031.4
20180924210606 68 93 3.0 9.0 0.00 0.00 0.00 69 1031.5
20180924210106 68 32 3.0 12.0 0.00 0.00 0.00 69 1031.5
20180924205605 68 21 3.0 8.0 0.00 0.00 0.00 70 1031.5
20180924205105 69 279 2.0 8.0 0.00 0.00 0.00 70 1031.5
20180924204604 69 48 3.0 9.0 0.00 0.00 0.00 70 1031.4
20180924204104 69 48 3.0 6.0 0.00 0.00 0.00 71 1031.4
20180924203606 69 35 2.0 5.0 0.00 0.00 0.00 69 1031.3